sensor_id;sensor_type;location;lat;lon;timestamp;P1;durP1;ratioP1;P2;durP2;ratioP2
54699;SDS011;40599;53.132;6.090;2023-08-17T00:01:56;7.63;;;4.55;;
54699;SDS011;40599;53.132;6.090;2023-08-17T00:04:22;10.73;;;4.35;;
54699;SDS011;40599;53.132;6.090;2023-08-17T00:06:48;14.85;;;5.82;;
54699;SDS011;40599;53.132;6.090;2023-08-17T00:09:14;14.30;;;5.72;;
54699;SDS011;40599;53.132;6.090;2023-08-17T00:11:40;15.07;;;6.25;;
54699;SDS011;40599;53.132;6.090;2023-08-17T00:14:06;13.50;;;5.20;;
54699;SDS011;40599;53.132;6.090;2023-08-17T00:16:33;8.55;;;4.80;;
54699;SDS011;40599;53.132;6.090;2023-08-17T00:18:59;11.75;;;5.47;;
54699;SDS011;40599;53.132;6.090;2023-08-17T00:21:25;8.73;;;5.15;;
54699;SDS011;40599;53.132;6.090;2023-08-17T00:23:51;9.07;;;5.60;;
54699;SDS011;40599;53.132;6.090;2023-08-17T00:26:17;16.30;;;6.18;;
54699;SDS011;40599;53.132;6.090;2023-08-17T00:28:44;11.80;;;5.03;;
54699;SDS011;40599;53.132;6.090;2023-08-17T00:31:10;9.18;;;5.22;;
54699;SDS011;40599;53.132;6.090;2023-08-17T00:33:36;10.98;;;4.97;;
54699;SDS011;40599;53.132;6.090;2023-08-17T00:36:02;12.13;;;4.88;;
54699;SDS011;40599;53.132;6.090;2023-08-17T00:38:28;12.23;;;5.35;;
54699;SDS011;40599;53.132;6.090;2023-08-17T00:40:55;11.27;;;4.45;;
54699;SDS011;40599;53.132;6.090;2023-08-17T00:43:21;11.38;;;5.78;;
54699;SDS011;40599;53.132;6.090;2023-08-17T00:45:47;12.82;;;5.65;;
54699;SDS011;40599;53.132;6.090;2023-08-17T00:48:13;10.05;;;5.90;;
54699;SDS011;40599;53.132;6.090;2023-08-17T00:50:40;12.23;;;5.13;;
54699;SDS011;40599;53.132;6.090;2023-08-17T00:53:06;8.18;;;4.60;;
54699;SDS011;40599;53.132;6.090;2023-08-17T00:55:38;11.07;;;5.40;;
54699;SDS011;40599;53.132;6.090;2023-08-17T00:58:04;8.07;;;5.38;;
54699;SDS011;40599;53.132;6.090;2023-08-17T01:00:30;9.88;;;4.53;;
54699;SDS011;40599;53.132;6.090;2023-08-17T01:02:57;11.40;;;5.20;;
54699;SDS011;40599;53.132;6.090;2023-08-17T01:05:24;10.43;;;5.28;;
54699;SDS011;40599;53.132;6.090;2023-08-17T01:07:50;5.50;;;3.42;;
54699;SDS011;40599;53.132;6.090;2023-08-17T01:10:16;14.35;;;5.40;;
54699;SDS011;40599;53.132;6.090;2023-08-17T01:15:16;14.30;;;5.28;;
54699;SDS011;40599;53.132;6.090;2023-08-17T01:20:15;11.03;;;5.80;;
54699;SDS011;40599;53.132;6.090;2023-08-17T01:22:44;14.73;;;5.57;;
54699;SDS011;40599;53.132;6.090;2023-08-17T01:25:11;10.17;;;5.73;;
54699;SDS011;40599;53.132;6.090;2023-08-17T01:27:41;13.15;;;6.22;;
54699;SDS011;40599;53.132;6.090;2023-08-17T01:30:07;12.07;;;5.67;;
54699;SDS011;40599;53.132;6.090;2023-08-17T01:32:49;15.23;;;5.93;;
54699;SDS011;40599;53.132;6.090;2023-08-17T01:35:28;12.33;;;6.53;;
54699;SDS011;40599;53.132;6.090;2023-08-17T01:37:55;10.70;;;6.33;;
54699;SDS011;40599;53.132;6.090;2023-08-17T01:40:24;10.33;;;6.07;;
54699;SDS011;40599;53.132;6.090;2023-08-17T01:42:54;8.83;;;5.80;;
54699;SDS011;40599;53.132;6.090;2023-08-17T01:47:46;14.43;;;5.80;;
54699;SDS011;40599;53.132;6.090;2023-08-17T01:50:12;13.73;;;6.03;;
54699;SDS011;40599;53.132;6.090;2023-08-17T01:52:39;11.98;;;6.38;;
54699;SDS011;40599;53.132;6.090;2023-08-17T01:55:05;13.73;;;5.38;;
54699;SDS011;40599;53.132;6.090;2023-08-17T01:57:31;13.68;;;5.90;;
54699;SDS011;40599;53.132;6.090;2023-08-17T01:59:57;15.25;;;5.82;;
54699;SDS011;40599;53.132;6.090;2023-08-17T02:02:30;9.38;;;5.30;;
54699;SDS011;40599;53.132;6.090;2023-08-17T02:04:56;9.83;;;6.30;;
54699;SDS011;40599;53.132;6.090;2023-08-17T02:07:22;14.38;;;6.68;;
54699;SDS011;40599;53.132;6.090;2023-08-17T02:09:48;12.30;;;7.20;;
54699;SDS011;40599;53.132;6.090;2023-08-17T02:12:15;13.57;;;7.05;;
54699;SDS011;40599;53.132;6.090;2023-08-17T02:14:41;20.00;;;7.97;;
54699;SDS011;40599;53.132;6.090;2023-08-17T02:17:07;11.10;;;7.25;;
54699;SDS011;40599;53.132;6.090;2023-08-17T02:19:45;13.20;;;6.83;;
54699;SDS011;40599;53.132;6.090;2023-08-17T02:22:13;15.27;;;5.47;;
54699;SDS011;40599;53.132;6.090;2023-08-17T02:24:39;14.77;;;6.78;;
54699;SDS011;40599;53.132;6.090;2023-08-17T02:27:06;14.05;;;5.97;;
54699;SDS011;40599;53.132;6.090;2023-08-17T02:29:32;9.95;;;5.10;;
54699;SDS011;40599;53.132;6.090;2023-08-17T02:31:58;17.23;;;7.13;;
54699;SDS011;40599;53.132;6.090;2023-08-17T02:34:27;11.05;;;6.28;;
54699;SDS011;40599;53.132;6.090;2023-08-17T02:36:54;12.77;;;7.27;;
54699;SDS011;40599;53.132;6.090;2023-08-17T02:39:20;23.73;;;8.25;;
54699;SDS011;40599;53.132;6.090;2023-08-17T02:41:46;14.43;;;7.57;;
54699;SDS011;40599;53.132;6.090;2023-08-17T02:44:14;10.67;;;7.27;;
54699;SDS011;40599;53.132;6.090;2023-08-17T02:46:40;13.00;;;7.38;;
54699;SDS011;40599;53.132;6.090;2023-08-17T02:49:07;12.98;;;6.95;;
54699;SDS011;40599;53.132;6.090;2023-08-17T02:51:33;14.23;;;6.82;;
54699;SDS011;40599;53.132;6.090;2023-08-17T02:53:59;14.40;;;6.38;;
54699;SDS011;40599;53.132;6.090;2023-08-17T02:56:25;13.48;;;6.60;;
54699;SDS011;40599;53.132;6.090;2023-08-17T02:58:52;13.10;;;7.20;;
54699;SDS011;40599;53.132;6.090;2023-08-17T03:01:18;12.07;;;6.93;;
54699;SDS011;40599;53.132;6.090;2023-08-17T03:03:44;10.93;;;6.93;;
54699;SDS011;40599;53.132;6.090;2023-08-17T03:06:10;15.20;;;7.47;;
54699;SDS011;40599;53.132;6.090;2023-08-17T03:08:36;16.92;;;7.18;;
54699;SDS011;40599;53.132;6.090;2023-08-17T03:11:02;13.88;;;7.57;;
54699;SDS011;40599;53.132;6.090;2023-08-17T03:13:31;13.60;;;7.17;;
54699;SDS011;40599;53.132;6.090;2023-08-17T03:15:57;14.00;;;7.15;;
54699;SDS011;40599;53.132;6.090;2023-08-17T03:18:23;9.60;;;6.20;;
54699;SDS011;40599;53.132;6.090;2023-08-17T03:20:49;17.60;;;7.85;;
54699;SDS011;40599;53.132;6.090;2023-08-17T03:23:16;12.00;;;6.75;;
54699;SDS011;40599;53.132;6.090;2023-08-17T03:25:42;19.85;;;8.57;;
54699;SDS011;40599;53.132;6.090;2023-08-17T03:28:11;18.03;;;7.80;;
54699;SDS011;40599;53.132;6.090;2023-08-17T03:30:37;14.00;;;7.07;;
54699;SDS011;40599;53.132;6.090;2023-08-17T03:33:03;16.38;;;6.78;;
54699;SDS011;40599;53.132;6.090;2023-08-17T03:35:29;13.80;;;6.30;;
54699;SDS011;40599;53.132;6.090;2023-08-17T03:37:55;16.63;;;6.35;;
54699;SDS011;40599;53.132;6.090;2023-08-17T03:40:21;15.15;;;7.28;;
54699;SDS011;40599;53.132;6.090;2023-08-17T03:42:48;14.18;;;6.43;;
54699;SDS011;40599;53.132;6.090;2023-08-17T03:45:14;18.92;;;7.25;;
54699;SDS011;40599;53.132;6.090;2023-08-17T03:47:40;15.93;;;7.00;;
54699;SDS011;40599;53.132;6.090;2023-08-17T03:50:07;15.55;;;7.45;;
54699;SDS011;40599;53.132;6.090;2023-08-17T03:52:33;12.32;;;6.78;;
54699;SDS011;40599;53.132;6.090;2023-08-17T03:54:59;12.77;;;7.45;;
54699;SDS011;40599;53.132;6.090;2023-08-17T03:57:25;13.55;;;6.88;;
54699;SDS011;40599;53.132;6.090;2023-08-17T03:59:51;10.98;;;6.07;;
54699;SDS011;40599;53.132;6.090;2023-08-17T04:02:18;10.93;;;7.18;;
54699;SDS011;40599;53.132;6.090;2023-08-17T04:04:44;16.13;;;7.57;;
54699;SDS011;40599;53.132;6.090;2023-08-17T04:07:10;14.40;;;7.32;;
54699;SDS011;40599;53.132;6.090;2023-08-17T04:09:36;15.60;;;7.00;;
54699;SDS011;40599;53.132;6.090;2023-08-17T04:12:02;15.18;;;7.78;;
54699;SDS011;40599;53.132;6.090;2023-08-17T04:14:30;13.57;;;6.90;;
54699;SDS011;40599;53.132;6.090;2023-08-17T04:16:56;12.88;;;6.75;;
54699;SDS011;40599;53.132;6.090;2023-08-17T04:21:49;14.00;;;7.13;;
54699;SDS011;40599;53.132;6.090;2023-08-17T04:24:15;13.00;;;6.72;;
54699;SDS011;40599;53.132;6.090;2023-08-17T04:26:41;10.48;;;7.57;;
54699;SDS011;40599;53.132;6.090;2023-08-17T04:29:07;14.90;;;6.28;;
54699;SDS011;40599;53.132;6.090;2023-08-17T04:31:33;11.48;;;6.30;;
54699;SDS011;40599;53.132;6.090;2023-08-17T04:34:00;18.48;;;6.60;;
54699;SDS011;40599;53.132;6.090;2023-08-17T04:36:26;13.23;;;6.45;;
54699;SDS011;40599;53.132;6.090;2023-08-17T04:38:52;16.30;;;6.90;;
54699;SDS011;40599;53.132;6.090;2023-08-17T04:41:18;10.90;;;6.65;;
54699;SDS011;40599;53.132;6.090;2023-08-17T04:43:44;10.15;;;5.93;;
54699;SDS011;40599;53.132;6.090;2023-08-17T04:46:11;18.87;;;5.93;;
54699;SDS011;40599;53.132;6.090;2023-08-17T04:48:38;12.38;;;6.05;;
54699;SDS011;40599;53.132;6.090;2023-08-17T04:51:06;14.03;;;6.70;;
54699;SDS011;40599;53.132;6.090;2023-08-17T04:55:59;11.45;;;6.30;;
54699;SDS011;40599;53.132;6.090;2023-08-17T04:58:25;13.18;;;6.20;;
54699;SDS011;40599;53.132;6.090;2023-08-17T05:00:53;9.87;;;5.83;;
54699;SDS011;40599;53.132;6.090;2023-08-17T05:03:19;11.70;;;5.85;;
54699;SDS011;40599;53.132;6.090;2023-08-17T05:05:45;15.63;;;5.85;;
54699;SDS011;40599;53.132;6.090;2023-08-17T05:08:11;12.40;;;6.03;;
54699;SDS011;40599;53.132;6.090;2023-08-17T05:10:39;12.30;;;5.83;;
54699;SDS011;40599;53.132;6.090;2023-08-17T05:13:05;13.85;;;6.28;;
54699;SDS011;40599;53.132;6.090;2023-08-17T05:15:31;10.32;;;6.05;;
54699;SDS011;40599;53.132;6.090;2023-08-17T05:17:57;11.98;;;5.60;;
54699;SDS011;40599;53.132;6.090;2023-08-17T05:20:23;13.15;;;5.82;;
54699;SDS011;40599;53.132;6.090;2023-08-17T05:22:50;11.93;;;6.35;;
54699;SDS011;40599;53.132;6.090;2023-08-17T05:25:16;14.07;;;5.43;;
54699;SDS011;40599;53.132;6.090;2023-08-17T05:27:56;8.90;;;4.80;;
54699;SDS011;40599;53.132;6.090;2023-08-17T05:30:22;9.73;;;4.15;;
54699;SDS011;40599;53.132;6.090;2023-08-17T05:32:48;13.65;;;3.70;;
54699;SDS011;40599;53.132;6.090;2023-08-17T05:35:14;9.25;;;3.63;;
54699;SDS011;40599;53.132;6.090;2023-08-17T05:37:41;6.85;;;3.35;;
54699;SDS011;40599;53.132;6.090;2023-08-17T05:40:07;8.18;;;3.25;;
54699;SDS011;40599;53.132;6.090;2023-08-17T05:42:34;5.63;;;2.85;;
54699;SDS011;40599;53.132;6.090;2023-08-17T05:45:00;11.73;;;2.92;;
54699;SDS011;40599;53.132;6.090;2023-08-17T05:47:26;5.93;;;2.58;;
54699;SDS011;40599;53.132;6.090;2023-08-17T05:49:52;10.50;;;2.78;;
54699;SDS011;40599;53.132;6.090;2023-08-17T05:52:19;7.40;;;2.60;;
54699;SDS011;40599;53.132;6.090;2023-08-17T05:54:45;4.82;;;2.45;;
54699;SDS011;40599;53.132;6.090;2023-08-17T05:57:11;6.93;;;2.67;;
54699;SDS011;40599;53.132;6.090;2023-08-17T05:59:37;5.28;;;2.30;;
54699;SDS011;40599;53.132;6.090;2023-08-17T06:02:03;9.07;;;3.00;;
54699;SDS011;40599;53.132;6.090;2023-08-17T06:04:30;7.10;;;2.65;;
54699;SDS011;40599;53.132;6.090;2023-08-17T06:06:56;9.48;;;2.72;;
54699;SDS011;40599;53.132;6.090;2023-08-17T06:09:22;5.13;;;2.47;;
54699;SDS011;40599;53.132;6.090;2023-08-17T06:11:48;4.65;;;2.15;;
54699;SDS011;40599;53.132;6.090;2023-08-17T06:14:15;3.10;;;2.15;;
54699;SDS011;40599;53.132;6.090;2023-08-17T06:16:41;5.07;;;2.50;;
54699;SDS011;40599;53.132;6.090;2023-08-17T06:19:07;10.10;;;2.40;;
54699;SDS011;40599;53.132;6.090;2023-08-17T06:21:33;7.25;;;2.60;;
54699;SDS011;40599;53.132;6.090;2023-08-17T06:23:59;4.53;;;2.08;;
54699;SDS011;40599;53.132;6.090;2023-08-17T06:26:25;8.88;;;2.42;;
54699;SDS011;40599;53.132;6.090;2023-08-17T06:28:52;6.35;;;2.45;;
54699;SDS011;40599;53.132;6.090;2023-08-17T06:31:18;7.38;;;2.03;;
54699;SDS011;40599;53.132;6.090;2023-08-17T06:33:44;5.57;;;1.77;;
54699;SDS011;40599;53.132;6.090;2023-08-17T06:36:11;5.60;;;1.70;;
54699;SDS011;40599;53.132;6.090;2023-08-17T06:38:42;5.43;;;1.90;;
54699;SDS011;40599;53.132;6.090;2023-08-17T06:41:12;8.13;;;2.60;;
54699;SDS011;40599;53.132;6.090;2023-08-17T06:43:39;10.00;;;2.13;;
54699;SDS011;40599;53.132;6.090;2023-08-17T06:46:05;6.00;;;2.53;;
54699;SDS011;40599;53.132;6.090;2023-08-17T06:48:31;6.03;;;1.85;;
54699;SDS011;40599;53.132;6.090;2023-08-17T06:50:57;5.03;;;1.90;;
54699;SDS011;40599;53.132;6.090;2023-08-17T06:53:23;4.97;;;2.17;;
54699;SDS011;40599;53.132;6.090;2023-08-17T06:55:49;5.70;;;2.03;;
54699;SDS011;40599;53.132;6.090;2023-08-17T06:58:16;5.57;;;1.73;;
54699;SDS011;40599;53.132;6.090;2023-08-17T07:00:42;5.97;;;2.08;;
54699;SDS011;40599;53.132;6.090;2023-08-17T07:03:09;5.45;;;1.92;;
54699;SDS011;40599;53.132;6.090;2023-08-17T07:05:35;6.28;;;2.08;;
54699;SDS011;40599;53.132;6.090;2023-08-17T07:08:01;7.47;;;2.25;;
54699;SDS011;40599;53.132;6.090;2023-08-17T07:10:27;7.53;;;1.90;;
54699;SDS011;40599;53.132;6.090;2023-08-17T07:12:54;5.97;;;2.45;;
54699;SDS011;40599;53.132;6.090;2023-08-17T07:15:20;5.18;;;1.70;;
54699;SDS011;40599;53.132;6.090;2023-08-17T07:17:46;5.00;;;1.50;;
54699;SDS011;40599;53.132;6.090;2023-08-17T07:20:12;4.47;;;1.55;;
54699;SDS011;40599;53.132;6.090;2023-08-17T07:22:38;5.95;;;1.60;;
54699;SDS011;40599;53.132;6.090;2023-08-17T07:25:05;7.32;;;1.80;;
54699;SDS011;40599;53.132;6.090;2023-08-17T07:27:33;4.53;;;1.83;;
54699;SDS011;40599;53.132;6.090;2023-08-17T07:29:59;6.32;;;1.77;;
54699;SDS011;40599;53.132;6.090;2023-08-17T07:32:25;7.47;;;2.65;;
54699;SDS011;40599;53.132;6.090;2023-08-17T07:34:52;6.47;;;1.83;;
54699;SDS011;40599;53.132;6.090;2023-08-17T07:37:18;5.50;;;1.80;;
54699;SDS011;40599;53.132;6.090;2023-08-17T07:39:44;5.72;;;1.67;;
54699;SDS011;40599;53.132;6.090;2023-08-17T07:42:10;7.57;;;2.15;;
54699;SDS011;40599;53.132;6.090;2023-08-17T07:44:36;5.03;;;1.45;;
54699;SDS011;40599;53.132;6.090;2023-08-17T07:47:04;3.77;;;1.50;;
54699;SDS011;40599;53.132;6.090;2023-08-17T07:49:31;3.92;;;1.30;;
54699;SDS011;40599;53.132;6.090;2023-08-17T07:51:57;8.05;;;1.58;;
54699;SDS011;40599;53.132;6.090;2023-08-17T07:54:23;7.95;;;1.65;;
54699;SDS011;40599;53.132;6.090;2023-08-17T07:56:49;3.75;;;1.15;;
54699;SDS011;40599;53.132;6.090;2023-08-17T07:59:15;3.72;;;1.30;;
54699;SDS011;40599;53.132;6.090;2023-08-17T08:01:42;3.80;;;1.73;;
54699;SDS011;40599;53.132;6.090;2023-08-17T08:04:08;5.32;;;1.58;;
54699;SDS011;40599;53.132;6.090;2023-08-17T08:06:34;5.53;;;1.35;;
54699;SDS011;40599;53.132;6.090;2023-08-17T08:09:00;6.07;;;1.50;;
54699;SDS011;40599;53.132;6.090;2023-08-17T08:13:55;4.07;;;1.55;;
54699;SDS011;40599;53.132;6.090;2023-08-17T08:16:21;5.78;;;1.50;;
54699;SDS011;40599;53.132;6.090;2023-08-17T08:18:47;6.90;;;1.60;;
54699;SDS011;40599;53.132;6.090;2023-08-17T08:24:07;2.57;;;1.00;;
54699;SDS011;40599;53.132;6.090;2023-08-17T08:26:34;5.57;;;1.50;;
54699;SDS011;40599;53.132;6.090;2023-08-17T08:29:00;2.25;;;1.17;;
54699;SDS011;40599;53.132;6.090;2023-08-17T08:31:26;4.72;;;1.50;;
54699;SDS011;40599;53.132;6.090;2023-08-17T08:33:52;4.80;;;1.30;;
54699;SDS011;40599;53.132;6.090;2023-08-17T08:36:19;3.55;;;1.20;;
54699;SDS011;40599;53.132;6.090;2023-08-17T08:38:45;5.15;;;1.50;;
54699;SDS011;40599;53.132;6.090;2023-08-17T08:41:11;5.72;;;1.40;;
54699;SDS011;40599;53.132;6.090;2023-08-17T08:43:38;4.00;;;1.92;;
54699;SDS011;40599;53.132;6.090;2023-08-17T08:46:05;5.17;;;1.60;;
54699;SDS011;40599;53.132;6.090;2023-08-17T08:48:31;4.07;;;1.40;;
54699;SDS011;40599;53.132;6.090;2023-08-17T08:50:59;6.10;;;1.20;;
54699;SDS011;40599;53.132;6.090;2023-08-17T08:53:32;6.97;;;1.53;;
54699;SDS011;40599;53.132;6.090;2023-08-17T08:56:02;2.40;;;1.27;;
54699;SDS011;40599;53.132;6.090;2023-08-17T08:58:29;5.50;;;1.42;;
54699;SDS011;40599;53.132;6.090;2023-08-17T09:00:55;4.40;;;1.25;;
54699;SDS011;40599;53.132;6.090;2023-08-17T09:03:23;5.77;;;1.67;;
54699;SDS011;40599;53.132;6.090;2023-08-17T09:05:50;5.30;;;1.40;;
54699;SDS011;40599;53.132;6.090;2023-08-17T09:08:25;5.93;;;1.52;;
54699;SDS011;40599;53.132;6.090;2023-08-17T09:10:53;5.80;;;1.50;;
54699;SDS011;40599;53.132;6.090;2023-08-17T09:13:19;3.53;;;1.20;;
54699;SDS011;40599;53.132;6.090;2023-08-17T09:15:45;6.38;;;1.63;;
54699;SDS011;40599;53.132;6.090;2023-08-17T09:18:11;2.45;;;1.38;;
54699;SDS011;40599;53.132;6.090;2023-08-17T09:20:38;4.15;;;1.50;;
54699;SDS011;40599;53.132;6.090;2023-08-17T09:23:09;7.13;;;1.77;;
54699;SDS011;40599;53.132;6.090;2023-08-17T09:25:37;5.80;;;1.47;;
54699;SDS011;40599;53.132;6.090;2023-08-17T09:28:08;6.67;;;1.87;;
54699;SDS011;40599;53.132;6.090;2023-08-17T09:30:48;4.73;;;1.50;;
54699;SDS011;40599;53.132;6.090;2023-08-17T09:33:15;4.77;;;1.67;;
54699;SDS011;40599;53.132;6.090;2023-08-17T09:39:04;6.87;;;2.20;;
54699;SDS011;40599;53.132;6.090;2023-08-17T09:41:30;6.07;;;1.60;;
54699;SDS011;40599;53.132;6.090;2023-08-17T09:44:04;11.23;;;1.70;;
54699;SDS011;40599;53.132;6.090;2023-08-17T09:46:30;4.07;;;1.50;;
54699;SDS011;40599;53.132;6.090;2023-08-17T09:48:56;7.10;;;1.80;;
54699;SDS011;40599;53.132;6.090;2023-08-17T09:51:23;4.53;;;1.42;;
54699;SDS011;40599;53.132;6.090;2023-08-17T09:53:52;5.27;;;1.60;;
54699;SDS011;40599;53.132;6.090;2023-08-17T09:56:21;4.80;;;1.57;;
54699;SDS011;40599;53.132;6.090;2023-08-17T09:58:47;4.63;;;1.60;;
54699;SDS011;40599;53.132;6.090;2023-08-17T10:01:13;3.13;;;1.38;;
54699;SDS011;40599;53.132;6.090;2023-08-17T10:03:42;5.18;;;1.80;;
54699;SDS011;40599;53.132;6.090;2023-08-17T10:06:27;6.53;;;1.37;;
54699;SDS011;40599;53.132;6.090;2023-08-17T10:08:56;5.30;;;1.87;;
54699;SDS011;40599;53.132;6.090;2023-08-17T10:11:24;5.70;;;1.50;;
54699;SDS011;40599;53.132;6.090;2023-08-17T10:13:51;5.93;;;1.77;;
54699;SDS011;40599;53.132;6.090;2023-08-17T10:16:36;5.00;;;1.63;;
54699;SDS011;40599;53.132;6.090;2023-08-17T10:24:39;9.33;;;2.67;;
54699;SDS011;40599;53.132;6.090;2023-08-17T10:27:06;4.28;;;1.60;;
54699;SDS011;40599;53.132;6.090;2023-08-17T10:29:32;5.18;;;1.58;;
54699;SDS011;40599;53.132;6.090;2023-08-17T10:31:59;3.33;;;1.52;;
54699;SDS011;40599;53.132;6.090;2023-08-17T10:34:26;6.50;;;1.67;;
54699;SDS011;40599;53.132;6.090;2023-08-17T10:36:56;4.70;;;1.90;;
54699;SDS011;40599;53.132;6.090;2023-08-17T10:39:27;6.33;;;1.90;;
54699;SDS011;40599;53.132;6.090;2023-08-17T10:49:47;3.87;;;1.40;;
54699;SDS011;40599;53.132;6.090;2023-08-17T10:52:14;4.10;;;1.50;;
54699;SDS011;40599;53.132;6.090;2023-08-17T10:54:41;4.72;;;2.10;;
54699;SDS011;40599;53.132;6.090;2023-08-17T10:57:41;5.47;;;1.60;;
54699;SDS011;40599;53.132;6.090;2023-08-17T11:00:13;7.33;;;2.03;;
54699;SDS011;40599;53.132;6.090;2023-08-17T11:02:42;7.13;;;1.87;;
54699;SDS011;40599;53.132;6.090;2023-08-17T11:05:09;5.20;;;1.20;;
54699;SDS011;40599;53.132;6.090;2023-08-17T11:07:41;4.20;;;1.33;;
54699;SDS011;40599;53.132;6.090;2023-08-17T11:10:11;7.67;;;1.87;;
54699;SDS011;40599;53.132;6.090;2023-08-17T11:12:37;5.40;;;1.63;;
54699;SDS011;40599;53.132;6.090;2023-08-17T11:15:04;3.72;;;1.50;;
54699;SDS011;40599;53.132;6.090;2023-08-17T11:19:56;5.10;;;1.83;;
54699;SDS011;40599;53.132;6.090;2023-08-17T11:22:23;8.30;;;2.00;;
54699;SDS011;40599;53.132;6.090;2023-08-17T11:24:49;6.00;;;1.77;;
54699;SDS011;40599;53.132;6.090;2023-08-17T11:27:15;6.10;;;2.20;;
54699;SDS011;40599;53.132;6.090;2023-08-17T11:29:41;11.50;;;1.75;;
54699;SDS011;40599;53.132;6.090;2023-08-17T11:32:08;5.65;;;1.40;;
54699;SDS011;40599;53.132;6.090;2023-08-17T11:34:36;5.67;;;2.10;;
54699;SDS011;40599;53.132;6.090;2023-08-17T11:37:02;7.97;;;1.70;;
54699;SDS011;40599;53.132;6.090;2023-08-17T11:42:52;4.63;;;1.70;;
54699;SDS011;40599;53.132;6.090;2023-08-17T11:45:19;4.30;;;1.88;;
54699;SDS011;40599;53.132;6.090;2023-08-17T11:47:46;5.38;;;1.98;;
54699;SDS011;40599;53.132;6.090;2023-08-17T11:50:13;7.43;;;1.73;;
54699;SDS011;40599;53.132;6.090;2023-08-17T11:52:48;5.83;;;1.87;;
54699;SDS011;40599;53.132;6.090;2023-08-17T11:55:17;8.90;;;1.87;;
54699;SDS011;40599;53.132;6.090;2023-08-17T11:57:44;9.53;;;1.80;;
54699;SDS011;40599;53.132;6.090;2023-08-17T12:00:16;3.58;;;1.70;;
54699;SDS011;40599;53.132;6.090;2023-08-17T12:02:42;4.10;;;1.73;;
54699;SDS011;40599;53.132;6.090;2023-08-17T12:05:08;6.60;;;2.05;;
54699;SDS011;40599;53.132;6.090;2023-08-17T12:10:04;6.47;;;2.17;;
54699;SDS011;40599;53.132;6.090;2023-08-17T12:12:30;6.60;;;1.70;;
54699;SDS011;40599;53.132;6.090;2023-08-17T12:14:57;6.07;;;1.83;;
54699;SDS011;40599;53.132;6.090;2023-08-17T12:17:24;5.83;;;2.13;;
54699;SDS011;40599;53.132;6.090;2023-08-17T12:19:53;5.38;;;1.77;;
54699;SDS011;40599;53.132;6.090;2023-08-17T12:22:22;7.57;;;1.93;;
54699;SDS011;40599;53.132;6.090;2023-08-17T12:24:49;8.77;;;1.77;;
54699;SDS011;40599;53.132;6.090;2023-08-17T12:27:15;8.52;;;2.80;;
54699;SDS011;40599;53.132;6.090;2023-08-17T12:29:49;4.57;;;2.10;;
54699;SDS011;40599;53.132;6.090;2023-08-17T12:32:16;7.17;;;1.90;;
54699;SDS011;40599;53.132;6.090;2023-08-17T12:34:42;6.27;;;2.20;;
54699;SDS011;40599;53.132;6.090;2023-08-17T12:37:09;6.50;;;2.50;;
54699;SDS011;40599;53.132;6.090;2023-08-17T12:39:35;9.98;;;2.47;;
54699;SDS011;40599;53.132;6.090;2023-08-17T12:42:02;8.38;;;2.53;;
54699;SDS011;40599;53.132;6.090;2023-08-17T12:44:28;8.85;;;2.25;;
54699;SDS011;40599;53.132;6.090;2023-08-17T12:46:54;7.22;;;2.40;;
54699;SDS011;40599;53.132;6.090;2023-08-17T12:49:21;5.97;;;2.10;;
54699;SDS011;40599;53.132;6.090;2023-08-17T12:54:14;7.83;;;2.43;;
54699;SDS011;40599;53.132;6.090;2023-08-17T12:56:40;6.85;;;2.70;;
54699;SDS011;40599;53.132;6.090;2023-08-17T12:59:06;8.85;;;2.05;;
54699;SDS011;40599;53.132;6.090;2023-08-17T13:01:32;9.35;;;2.70;;
54699;SDS011;40599;53.132;6.090;2023-08-17T13:03:59;8.73;;;2.88;;
54699;SDS011;40599;53.132;6.090;2023-08-17T13:06:25;5.30;;;2.33;;
54699;SDS011;40599;53.132;6.090;2023-08-17T13:08:51;7.60;;;2.67;;
54699;SDS011;40599;53.132;6.090;2023-08-17T13:11:17;8.35;;;2.67;;
54699;SDS011;40599;53.132;6.090;2023-08-17T13:13:43;7.30;;;2.60;;
54699;SDS011;40599;53.132;6.090;2023-08-17T13:19:32;8.23;;;2.50;;
54699;SDS011;40599;53.132;6.090;2023-08-17T13:22:08;11.37;;;2.73;;
54699;SDS011;40599;53.132;6.090;2023-08-17T13:24:35;10.37;;;3.07;;
54699;SDS011;40599;53.132;6.090;2023-08-17T13:27:01;8.60;;;2.45;;
54699;SDS011;40599;53.132;6.090;2023-08-17T13:29:27;8.63;;;2.38;;
54699;SDS011;40599;53.132;6.090;2023-08-17T13:31:54;11.27;;;2.55;;
54699;SDS011;40599;53.132;6.090;2023-08-17T13:34:20;8.20;;;2.28;;
54699;SDS011;40599;53.132;6.090;2023-08-17T13:36:46;10.18;;;2.72;;
54699;SDS011;40599;53.132;6.090;2023-08-17T13:39:12;7.75;;;2.55;;
54699;SDS011;40599;53.132;6.090;2023-08-17T13:41:39;8.13;;;2.50;;
54699;SDS011;40599;53.132;6.090;2023-08-17T13:44:05;7.77;;;2.87;;
54699;SDS011;40599;53.132;6.090;2023-08-17T13:46:32;9.10;;;2.67;;
54699;SDS011;40599;53.132;6.090;2023-08-17T13:49:14;5.90;;;2.83;;
54699;SDS011;40599;53.132;6.090;2023-08-17T13:51:40;7.38;;;2.63;;
54699;SDS011;40599;53.132;6.090;2023-08-17T13:54:06;6.97;;;2.88;;
54699;SDS011;40599;53.132;6.090;2023-08-17T13:56:33;7.53;;;2.70;;
54699;SDS011;40599;53.132;6.090;2023-08-17T13:58:59;9.00;;;2.63;;
54699;SDS011;40599;53.132;6.090;2023-08-17T14:01:25;6.25;;;2.42;;
54699;SDS011;40599;53.132;6.090;2023-08-17T14:03:51;7.45;;;2.97;;
54699;SDS011;40599;53.132;6.090;2023-08-17T14:06:17;7.22;;;2.35;;
54699;SDS011;40599;53.132;6.090;2023-08-17T14:08:44;7.15;;;2.70;;
54699;SDS011;40599;53.132;6.090;2023-08-17T14:11:10;7.35;;;2.47;;
54699;SDS011;40599;53.132;6.090;2023-08-17T14:13:36;13.10;;;2.90;;
54699;SDS011;40599;53.132;6.090;2023-08-17T14:16:03;8.53;;;2.90;;
54699;SDS011;40599;53.132;6.090;2023-08-17T14:18:29;8.65;;;3.05;;
54699;SDS011;40599;53.132;6.090;2023-08-17T14:20:55;8.05;;;3.00;;
54699;SDS011;40599;53.132;6.090;2023-08-17T14:23:21;11.77;;;3.60;;
54699;SDS011;40599;53.132;6.090;2023-08-17T14:25:48;9.27;;;3.15;;
54699;SDS011;40599;53.132;6.090;2023-08-17T14:28:16;8.93;;;3.30;;
54699;SDS011;40599;53.132;6.090;2023-08-17T14:30:42;7.03;;;3.33;;
54699;SDS011;40599;53.132;6.090;2023-08-17T14:33:09;8.55;;;3.45;;
54699;SDS011;40599;53.132;6.090;2023-08-17T14:35:35;11.55;;;3.63;;
54699;SDS011;40599;53.132;6.090;2023-08-17T14:38:01;14.93;;;4.05;;
54699;SDS011;40599;53.132;6.090;2023-08-17T14:40:27;9.20;;;3.83;;
54699;SDS011;40599;53.132;6.090;2023-08-17T14:42:53;13.82;;;3.22;;
54699;SDS011;40599;53.132;6.090;2023-08-17T14:45:20;5.18;;;3.33;;
54699;SDS011;40599;53.132;6.090;2023-08-17T14:47:46;11.73;;;3.25;;
54699;SDS011;40599;53.132;6.090;2023-08-17T14:50:12;8.15;;;3.55;;
54699;SDS011;40599;53.132;6.090;2023-08-17T14:55:05;7.70;;;3.33;;
54699;SDS011;40599;53.132;6.090;2023-08-17T14:57:32;10.18;;;3.65;;
54699;SDS011;40599;53.132;6.090;2023-08-17T14:59:58;10.88;;;3.67;;
54699;SDS011;40599;53.132;6.090;2023-08-17T15:02:24;10.32;;;3.88;;
54699;SDS011;40599;53.132;6.090;2023-08-17T15:04:50;9.98;;;3.60;;
54699;SDS011;40599;53.132;6.090;2023-08-17T15:07:16;10.93;;;4.88;;
54699;SDS011;40599;53.132;6.090;2023-08-17T15:09:43;9.82;;;3.88;;
54699;SDS011;40599;53.132;6.090;2023-08-17T15:12:09;9.55;;;3.80;;
54699;SDS011;40599;53.132;6.090;2023-08-17T15:14:35;6.57;;;3.70;;
54699;SDS011;40599;53.132;6.090;2023-08-17T15:17:01;7.00;;;3.60;;
54699;SDS011;40599;53.132;6.090;2023-08-17T15:19:27;10.95;;;3.75;;
54699;SDS011;40599;53.132;6.090;2023-08-17T15:21:55;15.10;;;3.47;;
54699;SDS011;40599;53.132;6.090;2023-08-17T15:24:21;10.30;;;3.08;;
54699;SDS011;40599;53.132;6.090;2023-08-17T15:26:54;13.70;;;3.60;;
54699;SDS011;40599;53.132;6.090;2023-08-17T15:29:21;13.33;;;3.77;;
54699;SDS011;40599;53.132;6.090;2023-08-17T15:31:47;7.43;;;3.22;;
54699;SDS011;40599;53.132;6.090;2023-08-17T15:34:13;13.48;;;4.45;;